createdAt,value
2023-04-16T00:02:01.804Z,11.09
2023-04-16T00:04:28.923Z,11.02
2023-04-16T00:06:55.425Z,11.42
2023-04-16T00:09:22.060Z,11.68
2023-04-16T00:11:48.719Z,11.18
2023-04-16T00:14:15.193Z,11.40
2023-04-16T00:16:41.775Z,11.63
2023-04-16T00:19:08.488Z,11.29
2023-04-16T00:21:38.164Z,11.13
2023-04-16T00:24:04.517Z,11.02
2023-04-16T00:26:31.008Z,11.49
2023-04-16T00:28:57.643Z,12.07
2023-04-16T00:31:28.978Z,11.60
2023-04-16T00:33:55.915Z,11.30
2023-04-16T00:36:27.069Z,11.75
2023-04-16T00:38:53.618Z,11.07
2023-04-16T00:41:19.968Z,12.28
2023-04-16T00:43:46.998Z,11.96
2023-04-16T00:46:13.873Z,11.76
2023-04-16T00:48:41.280Z,12.03
2023-04-16T00:51:08.746Z,12.27
2023-04-16T00:53:35.731Z,12.41
2023-04-16T00:56:03.005Z,12.15
2023-04-16T00:58:29.828Z,12.43
2023-04-16T01:00:58.188Z,11.67
2023-04-16T01:03:27.957Z,11.47
2023-04-16T01:05:55.677Z,11.61
2023-04-16T01:08:23.097Z,11.70
2023-04-16T01:10:49.712Z,11.66
2023-04-16T01:13:16.206Z,11.72
2023-04-16T01:15:42.753Z,11.64
2023-04-16T01:18:19.321Z,11.56
2023-04-16T01:20:46.726Z,11.29
2023-04-16T01:23:13.585Z,11.41
2023-04-16T01:25:40.436Z,12.15
2023-04-16T01:28:07.525Z,11.87
2023-04-16T01:30:34.097Z,11.68
2023-04-16T01:33:01.905Z,11.82
2023-04-16T01:35:29.530Z,12.05
2023-04-16T01:37:55.950Z,12.08
2023-04-16T01:40:22.453Z,12.13
2023-04-16T01:42:49.087Z,12.22
2023-04-16T01:45:15.984Z,12.11
2023-04-16T01:47:42.829Z,12.64
2023-04-16T01:50:10.668Z,11.80
2023-04-16T01:52:38.112Z,11.91
2023-04-16T01:55:04.733Z,11.99
2023-04-16T01:57:31.391Z,11.70
2023-04-16T01:59:57.928Z,12.20
2023-04-16T02:02:28.453Z,12.39
2023-04-16T02:04:56.369Z,11.96
2023-04-16T02:07:23.132Z,12.07
2023-04-16T02:09:51.141Z,12.39
2023-04-16T02:12:18.725Z,12.24
2023-04-16T02:14:45.042Z,12.08
2023-04-16T02:17:12.269Z,12.10
2023-04-16T02:19:39.141Z,12.19
2023-04-16T02:22:05.678Z,12.58
2023-04-16T02:24:32.073Z,12.59
2023-04-16T02:26:58.705Z,12.50
2023-04-16T02:29:25.334Z,12.85
2023-04-16T02:31:51.868Z,12.46
2023-04-16T02:34:19.194Z,12.94
2023-04-16T02:36:45.772Z,12.38
2023-04-16T02:39:12.369Z,12.05
2023-04-16T02:41:38.841Z,12.35
2023-04-16T02:44:05.599Z,12.71
2023-04-16T02:46:32.088Z,12.72
2023-04-16T02:48:58.383Z,12.31
2023-04-16T02:51:24.898Z,12.39
2023-04-16T02:53:51.670Z,12.11
2023-04-16T02:56:18.133Z,12.64
2023-04-16T02:58:44.596Z,12.81
2023-04-16T03:01:11.186Z,13.00
2023-04-16T03:03:38.074Z,12.23
2023-04-16T03:06:04.646Z,12.23
2023-04-16T03:08:31.256Z,12.38
2023-04-16T03:10:57.855Z,12.90
2023-04-16T03:13:24.592Z,12.41
2023-04-16T03:15:51.395Z,12.44
2023-04-16T03:18:17.975Z,12.22
2023-04-16T03:20:44.655Z,12.21
2023-04-16T03:23:11.191Z,12.09
2023-04-16T03:25:41.265Z,12.55
2023-04-16T03:28:07.746Z,13.11
2023-04-16T03:30:34.136Z,13.06
2023-04-16T03:33:00.708Z,12.50
2023-04-16T03:35:29.341Z,12.60
2023-04-16T03:37:55.872Z,12.85
2023-04-16T03:40:22.567Z,12.23
2023-04-16T03:42:48.975Z,12.35
2023-04-16T03:45:16.593Z,12.34
2023-04-16T03:47:43.851Z,12.50
2023-04-16T03:50:12.156Z,12.12
2023-04-16T03:52:38.740Z,12.15
2023-04-16T03:55:05.354Z,12.17
2023-04-16T03:57:32.030Z,12.58
2023-04-16T03:59:58.661Z,12.30
2023-04-16T04:02:25.597Z,12.34
2023-04-16T04:04:53.723Z,12.70
2023-04-16T04:07:20.433Z,12.16
2023-04-16T04:09:47.351Z,12.22
2023-04-16T04:12:13.817Z,12.56
2023-04-16T04:14:40.330Z,12.76
2023-04-16T04:17:07.093Z,12.71
2023-04-16T04:19:33.903Z,12.73
2023-04-16T04:22:00.495Z,12.83
2023-04-16T04:24:27.630Z,12.87
2023-04-16T04:26:54.533Z,13.20
2023-04-16T04:29:21.449Z,13.78
2023-04-16T04:31:48.880Z,13.95
2023-04-16T04:34:16.447Z,12.98
2023-04-16T04:36:43.760Z,13.71
2023-04-16T04:39:10.912Z,13.08
2023-04-16T04:41:39.094Z,13.13
2023-04-16T04:44:07.080Z,13.43
2023-04-16T04:46:34.645Z,13.03
2023-04-16T04:49:01.290Z,13.25
2023-04-16T04:51:29.175Z,13.43
2023-04-16T04:53:58.377Z,13.12
2023-04-16T04:56:24.837Z,13.24
2023-04-16T04:58:51.397Z,13.28
2023-04-16T05:01:18.559Z,13.14
2023-04-16T05:03:46.346Z,13.19
2023-04-16T05:06:13.190Z,13.05
2023-04-16T05:08:39.920Z,13.47
2023-04-16T05:11:06.874Z,13.26
2023-04-16T05:13:33.628Z,13.02
2023-04-16T05:16:03.138Z,13.30
2023-04-16T05:18:30.441Z,13.54
2023-04-16T05:20:59.907Z,13.48
2023-04-16T05:23:27.194Z,13.35
2023-04-16T05:25:55.145Z,13.23
2023-04-16T05:28:21.894Z,13.21
2023-04-16T05:30:48.450Z,13.39
2023-04-16T05:33:15.540Z,13.36
2023-04-16T05:35:43.325Z,13.63
2023-04-16T05:38:10.680Z,14.07
2023-04-16T05:40:37.900Z,13.24
2023-04-16T05:43:05.733Z,13.03
2023-04-16T05:45:39.854Z,13.42
2023-04-16T05:48:07.144Z,13.39
2023-04-16T05:50:34.545Z,13.52
2023-04-16T05:53:01.468Z,13.71
2023-04-16T05:55:28.198Z,13.58
2023-04-16T05:57:55.021Z,14.45
2023-04-16T06:00:21.593Z,13.65
2023-04-16T06:02:51.024Z,14.04
2023-04-16T06:05:17.901Z,14.07
2023-04-16T06:07:47.161Z,13.95
2023-04-16T06:10:15.820Z,13.81
2023-04-16T06:12:42.795Z,13.41
2023-04-16T06:15:11.280Z,13.85
2023-04-16T06:17:39.291Z,14.00
2023-04-16T06:20:06.308Z,13.70
2023-04-16T06:22:34.368Z,13.69
2023-04-16T06:25:01.302Z,13.84
2023-04-16T06:27:27.845Z,13.60
2023-04-16T06:29:54.378Z,13.23
2023-04-16T06:32:21.675Z,13.87
2023-04-16T06:34:48.329Z,13.29
2023-04-16T06:37:14.887Z,12.91
2023-04-16T06:39:41.407Z,13.34
2023-04-16T06:42:07.924Z,13.81
2023-04-16T06:44:35.563Z,13.13
2023-04-16T06:47:02.180Z,13.29
2023-04-16T06:49:28.888Z,13.04
2023-04-16T06:51:55.384Z,13.61
2023-04-16T06:54:21.961Z,13.34
2023-04-16T06:56:48.622Z,13.57
2023-04-16T06:59:15.808Z,13.37
2023-04-16T07:01:42.677Z,12.88
2023-04-16T07:04:11.799Z,13.07
2023-04-16T07:06:38.402Z,12.85
2023-04-16T07:09:05.064Z,12.98
2023-04-16T07:11:32.527Z,13.27
2023-04-16T07:13:59.042Z,13.34
2023-04-16T07:16:25.762Z,12.87
2023-04-16T07:18:52.479Z,13.29
2023-04-16T07:21:18.971Z,13.29
2023-04-16T07:23:45.466Z,13.04
2023-04-16T07:26:11.988Z,13.39
2023-04-16T07:28:39.115Z,14.11
2023-04-16T07:31:06.044Z,13.76
2023-04-16T07:33:32.878Z,13.44
2023-04-16T07:36:00.049Z,13.27
2023-04-16T07:38:26.708Z,13.32
2023-04-16T07:40:53.374Z,13.75
2023-04-16T07:43:20.004Z,13.97
2023-04-16T07:45:46.413Z,13.61
2023-04-16T07:48:13.141Z,13.54
2023-04-16T07:50:40.009Z,13.98
2023-04-16T07:53:07.605Z,14.14
2023-04-16T07:55:34.855Z,14.37
2023-04-16T07:58:04.128Z,13.75
2023-04-16T08:00:30.944Z,13.95
2023-04-16T08:02:57.557Z,13.73
2023-04-16T08:05:24.417Z,13.52
2023-04-16T08:07:51.081Z,13.77
2023-04-16T08:10:17.736Z,14.41
2023-04-16T08:12:45.149Z,14.34
2023-04-16T08:15:12.048Z,14.02
2023-04-16T08:17:39.262Z,13.84
2023-04-16T08:20:06.702Z,13.86
2023-04-16T08:22:33.895Z,13.82
2023-04-16T08:25:00.614Z,14.13
2023-04-16T08:27:27.046Z,13.44
2023-04-16T08:29:53.821Z,13.90
2023-04-16T08:32:21.860Z,14.08
2023-04-16T08:34:48.408Z,13.66
2023-04-16T08:37:15.662Z,13.98
2023-04-16T08:39:43.934Z,14.51
2023-04-16T08:42:16.060Z,13.87
2023-04-16T08:44:44.446Z,13.88
2023-04-16T08:47:12.819Z,13.67
2023-04-16T08:49:44.041Z,13.99
2023-04-16T08:52:14.956Z,14.29
2023-04-16T08:54:59.684Z,14.72
2023-04-16T08:57:30.055Z,14.09
2023-04-16T08:59:57.199Z,13.80
2023-04-16T09:02:26.574Z,13.46
2023-04-16T09:04:55.535Z,14.09
2023-04-16T09:07:22.276Z,14.53
2023-04-16T09:09:50.527Z,14.79
2023-04-16T09:12:17.440Z,14.48
2023-04-16T09:14:48.364Z,13.73
2023-04-16T09:17:16.308Z,14.04
2023-04-16T09:19:42.961Z,14.79
2023-04-16T09:22:09.550Z,14.90
2023-04-16T09:24:38.421Z,14.97
2023-04-16T09:27:06.434Z,14.72
2023-04-16T09:29:42.778Z,13.95
2023-04-16T09:32:10.826Z,14.06
2023-04-16T09:34:57.718Z,13.83
2023-04-16T09:37:26.759Z,14.05
2023-04-16T09:39:59.051Z,14.18
2023-04-16T09:42:28.052Z,14.12
2023-04-16T09:44:59.918Z,14.44
2023-04-16T09:47:42.479Z,14.49
2023-04-16T09:50:11.945Z,14.44
2023-04-16T09:52:39.787Z,14.94
2023-04-16T09:55:07.687Z,13.81
2023-04-16T09:57:38.001Z,14.37
2023-04-16T10:00:06.929Z,13.81
2023-04-16T10:02:34.991Z,13.52
2023-04-16T10:05:05.613Z,13.98
2023-04-16T10:07:34.135Z,14.04
2023-04-16T10:10:00.746Z,13.84
2023-04-16T10:12:29.218Z,14.31
2023-04-16T10:14:56.055Z,14.66
2023-04-16T10:17:23.995Z,13.72
2023-04-16T10:19:51.665Z,14.36
2023-04-16T10:22:18.192Z,13.82
2023-04-16T10:24:45.173Z,13.85
2023-04-16T10:27:12.291Z,13.28
2023-04-16T10:29:39.680Z,13.52
2023-04-16T10:32:06.692Z,13.91
2023-04-16T10:34:33.623Z,14.06
2023-04-16T10:37:00.686Z,13.61
2023-04-16T10:39:30.482Z,13.82
2023-04-16T10:42:10.407Z,13.50
2023-04-16T10:44:37.711Z,13.47
2023-04-16T10:47:11.051Z,13.71
2023-04-16T10:49:37.479Z,13.50
2023-04-16T10:52:15.225Z,13.28
2023-04-16T10:54:46.711Z,13.81
2023-04-16T10:57:17.906Z,14.13
2023-04-16T10:59:47.399Z,13.86
2023-04-16T11:02:16.153Z,13.83
2023-04-16T11:04:46.036Z,13.51
2023-04-16T11:07:22.454Z,13.47
2023-04-16T11:09:55.835Z,13.60
2023-04-16T11:12:31.651Z,13.97
2023-04-16T11:14:59.910Z,13.18
2023-04-16T11:17:33.531Z,13.59
2023-04-16T11:20:00.038Z,14.29
2023-04-16T11:22:27.180Z,14.01
2023-04-16T11:24:58.290Z,13.89
2023-04-16T11:27:27.936Z,14.49
2023-04-16T11:30:01.970Z,15.13
2023-04-16T11:32:32.157Z,14.45
2023-04-16T11:34:59.992Z,13.74
2023-04-16T11:37:36.869Z,13.38
2023-04-16T11:40:07.048Z,13.63
2023-04-16T11:42:34.060Z,13.88
2023-04-16T11:45:06.177Z,14.13
2023-04-16T11:47:35.570Z,14.86
2023-04-16T11:50:22.386Z,14.04
2023-04-16T11:52:49.781Z,13.85
2023-04-16T11:55:19.593Z,14.57
2023-04-16T11:57:48.065Z,14.84
2023-04-16T12:00:15.291Z,14.24
2023-04-16T12:02:46.074Z,14.17
2023-04-16T12:05:31.327Z,14.08
2023-04-16T12:08:03.315Z,13.75
2023-04-16T12:10:30.653Z,13.58
2023-04-16T12:13:13.380Z,14.17
2023-04-16T12:15:46.251Z,14.00
2023-04-16T12:18:12.946Z,15.06
2023-04-16T12:20:49.327Z,15.13
2023-04-16T12:23:23.553Z,14.84
2023-04-16T12:25:53.302Z,14.85
2023-04-16T12:28:30.032Z,14.70
2023-04-16T12:30:58.153Z,14.46
2023-04-16T12:33:25.182Z,14.67
2023-04-16T12:35:51.912Z,14.59
2023-04-16T12:38:20.781Z,15.15
2023-04-16T12:40:48.571Z,15.13
2023-04-16T12:43:15.160Z,15.08
2023-04-16T12:45:42.094Z,13.51
2023-04-16T12:48:08.605Z,14.26
2023-04-16T12:50:35.291Z,14.71
2023-04-16T12:53:02.303Z,14.12
2023-04-16T12:55:31.868Z,14.24
2023-04-16T12:57:58.678Z,15.31
2023-04-16T13:00:28.180Z,14.74
2023-04-16T13:02:54.854Z,14.06
2023-04-16T13:05:21.941Z,14.67
2023-04-16T13:07:48.561Z,14.83
2023-04-16T13:10:15.302Z,15.15
2023-04-16T13:12:47.085Z,14.47
2023-04-16T13:15:15.884Z,14.76
2023-04-16T13:17:43.673Z,15.02
2023-04-16T13:20:11.850Z,15.15
2023-04-16T13:22:39.428Z,14.71
2023-04-16T13:25:08.032Z,14.97
2023-04-16T13:27:35.061Z,15.85
2023-04-16T13:30:03.405Z,15.09
2023-04-16T13:32:31.351Z,15.16
2023-04-16T13:34:59.539Z,15.60
2023-04-16T13:37:27.609Z,15.98
2023-04-16T13:39:54.172Z,15.32
2023-04-16T13:42:22.231Z,15.27
2023-04-16T13:44:53.124Z,15.14
2023-04-16T13:47:20.327Z,15.49
2023-04-16T13:49:47.586Z,15.90
2023-04-16T13:52:14.161Z,15.71
2023-04-16T13:54:41.529Z,15.58
2023-04-16T13:57:08.486Z,15.60
2023-04-16T13:59:35.853Z,15.66
2023-04-16T14:02:06.180Z,16.06
2023-04-16T14:04:33.080Z,16.17
2023-04-16T14:07:00.311Z,16.28
2023-04-16T14:09:27.284Z,15.90
2023-04-16T14:11:53.803Z,15.31
2023-04-16T14:14:21.649Z,15.09
2023-04-16T14:16:49.625Z,15.38
2023-04-16T14:19:16.351Z,15.41
2023-04-16T14:21:42.885Z,15.40
2023-04-16T14:24:09.495Z,15.23
2023-04-16T14:26:36.026Z,15.01
2023-04-16T14:29:05.545Z,15.27
2023-04-16T14:31:33.221Z,16.36
2023-04-16T14:34:00.093Z,15.70
2023-04-16T14:36:28.277Z,15.36
2023-04-16T14:38:55.293Z,16.30
2023-04-16T14:41:21.955Z,15.23
2023-04-16T14:43:50.311Z,15.35
2023-04-16T14:46:19.949Z,15.60
2023-04-16T14:48:49.442Z,16.34
2023-04-16T14:51:17.541Z,17.19
2023-04-16T14:53:45.022Z,16.95
2023-04-16T14:56:13.617Z,16.80
2023-04-16T14:58:42.946Z,16.23
2023-04-16T15:01:09.748Z,15.96
2023-04-16T15:03:36.611Z,16.04
2023-04-16T15:06:03.481Z,15.47
2023-04-16T15:08:30.988Z,15.90
2023-04-16T15:10:57.824Z,15.83
2023-04-16T15:13:24.745Z,15.35
2023-04-16T15:15:51.458Z,15.39
2023-04-16T15:18:17.994Z,15.31
2023-04-16T15:20:47.350Z,15.93
2023-04-16T15:23:14.240Z,15.92
2023-04-16T15:25:40.796Z,15.91
2023-04-16T15:28:07.470Z,15.37
2023-04-16T15:30:34.557Z,15.49
2023-04-16T15:33:01.607Z,15.24
2023-04-16T15:35:30.110Z,15.21
2023-04-16T15:37:58.376Z,16.53
2023-04-16T15:40:24.922Z,16.56
2023-04-16T15:42:52.896Z,16.55
2023-04-16T15:45:21.393Z,16.44
2023-04-16T15:47:51.298Z,17.32
2023-04-16T15:50:18.723Z,17.14
2023-04-16T15:52:48.487Z,16.69
2023-04-16T15:55:17.670Z,15.77
2023-04-16T15:57:46.024Z,16.21
2023-04-16T16:00:19.731Z,15.97
2023-04-16T16:02:48.390Z,15.47
2023-04-16T16:05:17.530Z,15.44
2023-04-16T16:07:46.848Z,16.06
2023-04-16T16:10:15.037Z,15.21
2023-04-16T16:12:44.211Z,15.32
2023-04-16T16:15:12.246Z,15.43
2023-04-16T16:17:44.476Z,15.26
2023-04-16T16:20:12.931Z,15.33
2023-04-16T16:22:56.825Z,16.31
2023-04-16T16:25:27.523Z,16.08
2023-04-16T16:27:56.437Z,15.39
2023-04-16T16:30:23.709Z,14.92
2023-04-16T16:32:51.669Z,15.44
2023-04-16T16:35:22.447Z,15.36
2023-04-16T16:37:48.864Z,14.64
2023-04-16T16:40:18.472Z,15.26
2023-04-16T16:42:47.486Z,15.12
2023-04-16T16:45:18.819Z,16.25
2023-04-16T16:47:57.867Z,15.79
2023-04-16T16:50:29.087Z,15.95
2023-04-16T16:53:09.947Z,15.62
2023-04-16T16:55:38.743Z,15.60
2023-04-16T16:58:21.198Z,15.60
2023-04-16T17:00:50.343Z,15.56
2023-04-16T17:03:21.145Z,15.70
2023-04-16T17:05:49.983Z,15.74
2023-04-16T17:08:18.241Z,15.77
2023-04-16T17:10:53.012Z,15.46
2023-04-16T17:13:20.120Z,15.69
2023-04-16T17:15:47.114Z,14.97
2023-04-16T17:18:14.065Z,15.01
2023-04-16T17:20:42.881Z,15.32
2023-04-16T17:23:10.289Z,14.93
2023-04-16T17:26:03.788Z,15.24
2023-04-16T17:28:30.610Z,15.95
2023-04-16T17:31:02.063Z,16.49
2023-04-16T17:33:43.803Z,16.93
2023-04-16T17:36:15.249Z,16.88
2023-04-16T17:38:48.627Z,16.90
2023-04-16T17:41:28.625Z,15.85
2023-04-16T17:44:00.574Z,16.06
2023-04-16T17:46:27.273Z,16.61
2023-04-16T17:48:54.234Z,16.32
2023-04-16T17:51:21.604Z,16.16
2023-04-16T17:54:17.241Z,15.67
2023-04-16T17:56:44.537Z,16.01
2023-04-16T17:59:12.114Z,16.38
2023-04-16T18:01:45.247Z,16.48
2023-04-16T18:04:12.274Z,16.63
2023-04-16T18:06:39.369Z,15.72
2023-04-16T18:09:06.819Z,15.56
2023-04-16T18:11:41.782Z,15.44
2023-04-16T18:14:14.098Z,15.40
2023-04-16T18:16:49.627Z,15.12
2023-04-16T18:19:16.624Z,15.42
2023-04-16T18:21:43.664Z,15.62
2023-04-16T18:24:11.873Z,15.57
2023-04-16T18:26:40.968Z,15.51
2023-04-16T18:29:09.637Z,15.47
2023-04-16T18:31:36.621Z,15.35
2023-04-16T18:34:03.672Z,15.42
2023-04-16T18:36:31.623Z,15.51
2023-04-16T18:39:02.396Z,15.81
2023-04-16T18:41:30.071Z,15.69
2023-04-16T18:43:56.781Z,16.06
2023-04-16T18:46:24.691Z,16.19
2023-04-16T18:49:29.670Z,16.31
2023-04-16T18:51:56.432Z,16.28
2023-04-16T18:54:24.424Z,16.29
2023-04-16T18:56:51.591Z,16.24
2023-04-16T18:59:18.288Z,15.72
2023-04-16T19:01:53.150Z,15.80
2023-04-16T19:04:20.168Z,16.20
2023-04-16T19:07:01.419Z,16.44
2023-04-16T19:09:28.902Z,16.74
2023-04-16T19:11:56.159Z,17.02
2023-04-16T19:14:22.801Z,17.00
2023-04-16T19:16:49.717Z,17.16
2023-04-16T19:19:17.358Z,17.11
2023-04-16T19:21:44.226Z,16.96
2023-04-16T19:24:11.952Z,16.85
2023-04-16T19:26:38.542Z,17.13
2023-04-16T19:29:05.277Z,17.01
2023-04-16T19:31:32.956Z,16.90
2023-04-16T19:33:59.814Z,16.67
2023-04-16T19:36:27.648Z,16.79
2023-04-16T19:38:54.431Z,16.70
2023-04-16T19:41:20.960Z,16.73
2023-04-16T19:43:47.668Z,16.79
2023-04-16T19:46:15.629Z,16.92
2023-04-16T19:48:42.488Z,16.78
2023-04-16T19:51:09.094Z,16.37
2023-04-16T19:53:36.093Z,16.27
2023-04-16T19:56:03.002Z,15.95
2023-04-16T19:58:29.848Z,16.19
2023-04-16T20:00:57.857Z,16.19
2023-04-16T20:03:27.298Z,16.36
2023-04-16T20:05:54.976Z,16.23
2023-04-16T20:08:23.927Z,15.76
2023-04-16T20:10:52.982Z,15.79
2023-04-16T20:13:19.703Z,15.90
2023-04-16T20:15:47.329Z,15.90
2023-04-16T20:18:13.795Z,15.91
2023-04-16T20:20:42.931Z,16.20
2023-04-16T20:23:09.384Z,16.60
2023-04-16T20:25:40.976Z,16.58
2023-04-16T20:28:07.360Z,16.78
2023-04-16T20:30:38.853Z,16.54
2023-04-16T20:33:06.875Z,16.54
2023-04-16T20:35:33.516Z,16.65
2023-04-16T20:38:00.982Z,16.08
2023-04-16T20:40:30.452Z,16.09
2023-04-16T20:43:00.145Z,16.59
2023-04-16T20:45:32.052Z,15.99
2023-04-16T20:47:59.715Z,16.04
2023-04-16T20:50:26.490Z,16.23
2023-04-16T20:52:53.150Z,16.08
2023-04-16T20:55:19.856Z,15.66
2023-04-16T20:57:46.648Z,15.01
2023-04-16T21:00:13.951Z,14.83
2023-04-16T21:02:41.675Z,14.90
2023-04-16T21:05:10.620Z,14.79
2023-04-16T21:07:37.143Z,14.65
2023-04-16T21:10:04.181Z,15.13
2023-04-16T21:12:32.264Z,15.18
2023-04-16T21:14:59.183Z,15.34
2023-04-16T21:17:27.046Z,15.34
2023-04-16T21:19:53.512Z,15.14
2023-04-16T21:22:20.394Z,15.24
2023-04-16T21:24:47.101Z,15.03
2023-04-16T21:27:13.512Z,15.11
2023-04-16T21:29:41.269Z,14.68
2023-04-16T21:32:07.694Z,14.86
2023-04-16T21:34:34.340Z,14.55
2023-04-16T21:37:00.888Z,14.63
2023-04-16T21:39:32.170Z,14.19
2023-04-16T21:41:59.160Z,14.14
2023-04-16T21:44:25.555Z,14.09
2023-04-16T21:46:52.302Z,14.01
2023-04-16T21:49:19.703Z,14.32
2023-04-16T21:51:46.232Z,14.09
2023-04-16T21:54:13.337Z,14.23
2023-04-16T21:56:41.746Z,13.86
2023-04-16T21:59:08.942Z,13.90
2023-04-16T22:01:36.670Z,13.96
2023-04-16T22:04:03.915Z,13.68
2023-04-16T22:06:31.485Z,14.23
2023-04-16T22:08:59.688Z,14.57
2023-04-16T22:11:27.558Z,14.22
2023-04-16T22:13:57.975Z,14.36
2023-04-16T22:16:25.823Z,14.55
2023-04-16T22:18:52.582Z,14.31
2023-04-16T22:21:19.151Z,14.67
2023-04-16T22:23:46.677Z,14.95
2023-04-16T22:26:13.111Z,14.95
2023-04-16T22:28:40.490Z,14.49
2023-04-16T22:31:07.087Z,15.45
2023-04-16T22:33:34.527Z,15.31
2023-04-16T22:36:01.155Z,15.32
2023-04-16T22:38:27.576Z,15.41
2023-04-16T22:40:55.158Z,15.38
2023-04-16T22:43:22.195Z,15.54
2023-04-16T22:45:48.832Z,15.84
2023-04-16T22:48:15.668Z,15.90
2023-04-16T22:50:45.779Z,15.92
2023-04-16T22:53:12.165Z,16.10
2023-04-16T22:55:38.550Z,16.22
2023-04-16T22:58:04.900Z,16.05
2023-04-16T23:00:33.501Z,16.18
2023-04-16T23:03:00.644Z,15.93
2023-04-16T23:05:27.863Z,16.09
2023-04-16T23:07:54.344Z,15.99
2023-04-16T23:10:21.017Z,16.05
2023-04-16T23:12:47.610Z,16.23
2023-04-16T23:15:14.475Z,16.14
2023-04-16T23:17:41.069Z,15.64
2023-04-16T23:20:07.970Z,15.86
2023-04-16T23:22:34.396Z,15.83
2023-04-16T23:25:01.153Z,15.86
2023-04-16T23:27:28.958Z,15.90
2023-04-16T23:29:55.720Z,15.39
2023-04-16T23:32:22.290Z,15.69
2023-04-16T23:34:48.781Z,15.71
2023-04-16T23:37:15.515Z,15.85
2023-04-16T23:39:42.120Z,15.82
2023-04-16T23:42:08.774Z,15.85
2023-04-16T23:44:35.638Z,15.91
2023-04-16T23:47:02.317Z,15.63
2023-04-16T23:49:28.879Z,15.63
2023-04-16T23:51:55.430Z,15.62
2023-04-16T23:54:22.723Z,15.66
2023-04-16T23:56:49.199Z,15.64
2023-04-16T23:59:16.826Z,15.50
